Elliyedinci Alay — TCZX9 — position and weather

sailwx.info

Track history (hours):
 
Tides and Currents Weather Stations Pressure Air Temp Water Temp Dewpoint Dewpoint Depression Visibility Wind Speed Wind Dir Waves Ship Positions

Elliyedinci Alay

Last reported at 2017-Sep-21 07:51 UTC. Time now 2017-Sep-21 12:32 UTC.
Position N 40°12' E 026°09'.

Length 90 m.

Type: . MMSI: 271042595.

Date/timePositionNaut miles runAvg speedWind from/ knotsBaromVisibWave heightAir tempDewpointWater temp
2017-Sep-21 07:51N 40°12' E 026°09'5 0.4
2017-Sep-20 19:29N 40°12' E 026°16'610.8
2017-Sep-20 18:53N 40°10' E 026°08'7 4.4
2017-Sep-20 17:13N 40°14' E 026°00'311.0
2017-Sep-20 16:58N 40°14' E 026°04'5 1.6
2017-Sep-20 13:52N 40°10' E 026°08'411.7
2017-Sep-20 13:30N 40°13' E 026°04'5 2.2
2017-Sep-20 11:23N 40°14' E 025°58'710.3
2017-Sep-20 10:41N 40°14' E 026°07'211.2
2017-Sep-20 10:28N 40°13' E 026°10'2 0.6
2017-Sep-20 07:44N 40°13' E 026°08'312.9
2017-Sep-20 07:30N 40°13' E 026°05'9 1.0
2017-Sep-19 22:57N 40°12' E 026°16'0 0.0
2017-Sep-19 21:49N 40°12' E 026°16'0 0.0
2017-Sep-19 21:29N 40°12' E 026°16'0 0.0
2017-Sep-19 21:00N 40°12' E 026°16'0 0.0
2017-Sep-19 20:29N 40°12' E 026°16'0 0.0
2017-Sep-19 19:49N 40°12' E 026°16'0 0.0
2017-Sep-19 16:05N 40°12' E 026°16'0 1.3
2017-Sep-19 15:59N 40°12' E 026°16'0 0.0
2017-Sep-19 15:30N 40°12' E 026°16'0 0.0
2017-Sep-19 14:15N 40°12' E 026°16'310.8
2017-Sep-19 14:00N 40°13' E 026°13'10 3.4
2017-Sep-19 11:10N 40°14' E 026°00'210.8
2017-Sep-19 10:59N 40°14' E 026°03'711.1
2017-Sep-19 10:20N 40°13' E 026°12'3 9.4
2017-Sep-19 10:00N 40°12' E 026°16'10 4.1
2017-Sep-19 07:26N 40°13' E 026°03'2 1.1
2017-Sep-19 05:18N 40°14' E 025°60'1310.7
2017-Sep-19 04:08N 40°12' E 026°16'0 0.0
2017-Sep-18 22:36N 40°12' E 026°16'0 0.1
2017-Sep-18 22:29N 40°12' E 026°16'0 0.0
2017-Sep-18 20:49N 40°12' E 026°16'0 0.0
2017-Sep-18 18:00N 40°12' E 026°16'0 0.0
2017-Sep-18 17:30N 40°12' E 026°16'4 7.9
2017-Sep-18 17:00N 40°12' E 026°11'611.9
2017-Sep-18 16:30N 40°13' E 026°03'2 0.9
2017-Sep-18 14:07N 40°14' E 026°01'210.7
2017-Sep-18 13:57N 40°14' E 026°03'1011.2
2017-Sep-18 13:02N 40°12' E 026°16'0 0.0
2017-Sep-18 12:54N 40°12' E 026°16'0 0.0
2017-Sep-18 12:29N 40°12' E 026°16'0 0.0
2017-Sep-18 11:57N 40°12' E 026°16'0 0.0
2017-Sep-18 11:29N 40°12' E 026°16'5 7.4
2017-Sep-18 10:51N 40°12' E 026°10'412.7
2017-Sep-18 10:30N 40°13' E 026°04'5 1.7
2017-Sep-18 07:23N 40°13' E 026°11'6 1.9
2017-Sep-18 04:30N 40°13' E 026°04'3 0.4
2017-Sep-17 21:06N 40°14' E 026°00'111.6
2017-Sep-17 21:00N 40°14' E 026°02'811.8
2017-Sep-17 20:20N 40°13' E 026°12'3 9.5
2017-Sep-17 20:00N 40°12' E 026°16'0 0.0
2017-Sep-17 19:30N 40°12' E 026°16'1 0.3
2017-Sep-17 16:28N 40°12' E 026°15'1 2.0
2017-Sep-17 16:00N 40°12' E 026°16'4 6.6
2017-Sep-17 15:23N 40°12' E 026°11'912.8
2017-Sep-17 14:41N 40°13' E 025°59'1 1.1
2017-Sep-17 14:04N 40°14' E 025°58'211.2
2017-Sep-17 13:54N 40°14' E 026°01'811.2
2017-Sep-17 13:11N 40°13' E 026°11'211.4
2017-Sep-17 12:59N 40°13' E 026°14'2 3.3
2017-Sep-17 12:30N 40°12' E 026°16'9 8.9
2017-Sep-17 11:30N 40°13' E 026°04'4 4.4
2017-Sep-17 10:29N 40°14' E 025°59'510.9
2017-Sep-17 10:00N 40°13' E 026°06'811.6
2017-Sep-17 09:21N 40°12' E 026°15'1 1.4
2017-Sep-17 08:54N 40°12' E 026°16'3 6.3
2017-Sep-17 08:30N 40°12' E 026°13'612.3
2017-Sep-17 07:59N 40°13' E 026°04'3 2.6
2017-Sep-17 06:51N 40°14' E 026°01'411.3
2017-Sep-17 06:28N 40°13' E 026°06'8 8.9
2017-Sep-17 05:38N 40°12' E 026°16'0 0.0
2017-Sep-17 05:30N 40°12' E 026°16'12 9.7
2017-Sep-17 04:15N 40°13' E 026°00'2 1.8
2017-Sep-17 03:18N 40°14' E 025°58'14 2.6
2017-Sep-16 21:57N 40°12' E 026°16'0 0.0
2017-Sep-16 21:27N 40°12' E 026°16'4 7.3
2017-Sep-16 20:52N 40°12' E 026°11'512.0
2017-Sep-16 20:28N 40°13' E 026°04'3 1.9
2017-Sep-16 19:03N 40°14' E 026°01'110.9
2017-Sep-16 18:59N 40°14' E 026°02'5 2.3
2017-Sep-16 16:55N 40°12' E 026°08'7 6.2
2017-Sep-16 15:46N 40°14' E 025°58'310.4
2017-Sep-16 15:30N 40°14' E 026°02'610.9
2017-Sep-16 14:59N 40°13' E 026°09'5 6.9
2017-Sep-16 14:14N 40°12' E 026°16'0 0.1
2017-Sep-16 13:59N 40°12' E 026°16'711.6
2017-Sep-16 13:25N 40°13' E 026°07'5 3.4
2017-Sep-16 12:01N 40°14' E 026°01'010.9
2017-Sep-16 11:58N 40°13' E 026°02'2 0.7
2017-Sep-16 09:44N 40°13' E 026°04'1 0.3
2017-Sep-16 06:19N 40°12' E 026°05'8 0.8
2017-Sep-15 19:49N 40°12' E 026°16'0 0.0
2017-Sep-15 19:28N 40°12' E 026°16'11 4.9
2017-Sep-15 17:09N 40°13' E 026°01'210.6
2017-Sep-15 16:58N 40°13' E 026°04'10 8.5
2017-Sep-15 15:51N 40°12' E 026°16'0 0.0
2017-Sep-15 15:30N 40°12' E 026°16'7 1.4
2017-Sep-15 10:41N 40°13' E 026°08'3 0.7
2017-Sep-15 06:26N 40°13' E 026°04'3 0.3
2017-Sep-14 16:48N 40°12' E 026°08'412.5
2017-Sep-14 16:29N 40°13' E 026°03'3 2.0
2017-Sep-14 15:06N 40°14' E 025°60'4 0.4
2017-Sep-14 04:32N 40°13' E 026°05'012.4
2017-Sep-14 04:30N 40°13' E 026°04'3 0.4
2017-Sep-13 19:04N 40°14' E 026°00'111.6
2017-Sep-13 18:58N 40°14' E 026°02'4 1.8
2017-Sep-13 16:39N 40°13' E 026°07'212.7
2017-Sep-13 16:28N 40°13' E 026°04'3 0.8
2017-Sep-13 12:42N 40°13' E 026°08'312.7
2017-Sep-13 12:30N 40°13' E 026°04'2 1.5
2017-Sep-13 11:01N 40°14' E 026°02'011.1
2017-Sep-13 11:00N 40°14' E 026°02'1111.4
2017-Sep-13 10:03N 40°12' E 026°16'0 1.7
2017-Sep-13 10:00N 40°12' E 026°16'0 0.0
2017-Sep-13 09:18N 40°12' E 026°16'1111.5
2017-Sep-13 08:22N 40°14' E 026°02'4 1.1
2017-Sep-13 04:41N 40°12' E 026°08'212.7
2017-Sep-13 04:30N 40°13' E 026°05'3 0.3
2017-Sep-12 19:01N 40°14' E 026°01'011.4
2017-Sep-12 19:00N 40°14' E 026°02'5 1.9
2017-Sep-12 16:40N 40°12' E 026°07'212.8
2017-Sep-12 16:30N 40°13' E 026°04'2 0.2
2017-Sep-12 06:51N 40°12' E 026°06'5 0.5
2017-Sep-11 19:09N 40°14' E 025°60'210.7
2017-Sep-11 19:00N 40°14' E 026°02'11 6.8
2017-Sep-11 17:21N 40°12' E 026°16'6 9.6
2017-Sep-11 16:41N 40°13' E 026°08'313.2
2017-Sep-11 16:26N 40°13' E 026°03'1 0.6
2017-Sep-11 14:57N 40°14' E 026°04'510.9
2017-Sep-11 14:29N 40°14' E 026°10'5 9.5
2017-Sep-11 14:00N 40°12' E 026°16'0 0.0
2017-Sep-11 13:25N 40°12' E 026°16'4 1.3
2017-Sep-11 10:29N 40°13' E 026°11'4 7.9
2017-Sep-11 10:00N 40°12' E 026°16'  
Track history (hours):
 
Tides and Currents Weather Stations Pressure Air Temp Water Temp Dewpoint Dewpoint Depression Visibility Wind Speed Wind Dir Waves Ship Positions

Elliyedinci Alay

Last reported at 2017-Sep-21 07:51 UTC. Time now 2017-Sep-21 12:32 UTC.
Position N 40°12' E 026°09'.

Length 90 m.

Type: . MMSI: 271042595.

Date/timePositionNaut miles runAvg speedWind from/ knotsBaromVisibWave heightAir tempDewpointWater temp
2017-Sep-21 07:51N 40°12' E 026°09'5 0.4
2017-Sep-20 19:29N 40°12' E 026°16'610.8
2017-Sep-20 18:53N 40°10' E 026°08'7 4.4
2017-Sep-20 17:13N 40°14' E 026°00'311.0
2017-Sep-20 16:58N 40°14' E 026°04'5 1.6
2017-Sep-20 13:52N 40°10' E 026°08'411.7
2017-Sep-20 13:30N 40°13' E 026°04'5 2.2
2017-Sep-20 11:23N 40°14' E 025°58'710.3
2017-Sep-20 10:41N 40°14' E 026°07'211.2
2017-Sep-20 10:28N 40°13' E 026°10'2 0.6
2017-Sep-20 07:44N 40°13' E 026°08'312.9
2017-Sep-20 07:30N 40°13' E 026°05'9 1.0
2017-Sep-19 22:57N 40°12' E 026°16'0 0.0
2017-Sep-19 21:49N 40°12' E 026°16'0 0.0
2017-Sep-19 21:29N 40°12' E 026°16'0 0.0
2017-Sep-19 21:00N 40°12' E 026°16'0 0.0
2017-Sep-19 20:29N 40°12' E 026°16'0 0.0
2017-Sep-19 19:49N 40°12' E 026°16'0 0.0
2017-Sep-19 16:05N 40°12' E 026°16'0 1.3
2017-Sep-19 15:59N 40°12' E 026°16'0 0.0
2017-Sep-19 15:30N 40°12' E 026°16'0 0.0
2017-Sep-19 14:15N 40°12' E 026°16'310.8
2017-Sep-19 14:00N 40°13' E 026°13'10 3.4
2017-Sep-19 11:10N 40°14' E 026°00'210.8
2017-Sep-19 10:59N 40°14' E 026°03'711.1
2017-Sep-19 10:20N 40°13' E 026°12'3 9.4
2017-Sep-19 10:00N 40°12' E 026°16'10 4.1
2017-Sep-19 07:26N 40°13' E 026°03'2 1.1
2017-Sep-19 05:18N 40°14' E 025°60'1310.7
2017-Sep-19 04:08N 40°12' E 026°16'0 0.0
2017-Sep-18 22:36N 40°12' E 026°16'0 0.1
2017-Sep-18 22:29N 40°12' E 026°16'0 0.0
2017-Sep-18 20:49N 40°12' E 026°16'0 0.0
2017-Sep-18 18:00N 40°12' E 026°16'0 0.0
2017-Sep-18 17:30N 40°12' E 026°16'4 7.9
2017-Sep-18 17:00N 40°12' E 026°11'611.9
2017-Sep-18 16:30N 40°13' E 026°03'2 0.9
2017-Sep-18 14:07N 40°14' E 026°01'210.7
2017-Sep-18 13:57N 40°14' E 026°03'1011.2
2017-Sep-18 13:02N 40°12' E 026°16'0 0.0
2017-Sep-18 12:54N 40°12' E 026°16'0 0.0
2017-Sep-18 12:29N 40°12' E 026°16'0 0.0
2017-Sep-18 11:57N 40°12' E 026°16'0 0.0
2017-Sep-18 11:29N 40°12' E 026°16'5 7.4
2017-Sep-18 10:51N 40°12' E 026°10'412.7
2017-Sep-18 10:30N 40°13' E 026°04'5 1.7
2017-Sep-18 07:23N 40°13' E 026°11'6 1.9
2017-Sep-18 04:30N 40°13' E 026°04'3 0.4
2017-Sep-17 21:06N 40°14' E 026°00'111.6
2017-Sep-17 21:00N 40°14' E 026°02'811.8
2017-Sep-17 20:20N 40°13' E 026°12'3 9.5
2017-Sep-17 20:00N 40°12' E 026°16'0 0.0
2017-Sep-17 19:30N 40°12' E 026°16'1 0.3
2017-Sep-17 16:28N 40°12' E 026°15'1 2.0
2017-Sep-17 16:00N 40°12' E 026°16'4 6.6
2017-Sep-17 15:23N 40°12' E 026°11'912.8
2017-Sep-17 14:41N 40°13' E 025°59'1 1.1
2017-Sep-17 14:04N 40°14' E 025°58'211.2
2017-Sep-17 13:54N 40°14' E 026°01'811.2
2017-Sep-17 13:11N 40°13' E 026°11'211.4
2017-Sep-17 12:59N 40°13' E 026°14'2 3.3
2017-Sep-17 12:30N 40°12' E 026°16'9 8.9
2017-Sep-17 11:30N 40°13' E 026°04'4 4.4
2017-Sep-17 10:29N 40°14' E 025°59'510.9
2017-Sep-17 10:00N 40°13' E 026°06'811.6
2017-Sep-17 09:21N 40°12' E 026°15'1 1.4
2017-Sep-17 08:54N 40°12' E 026°16'3 6.3
2017-Sep-17 08:30N 40°12' E 026°13'612.3
2017-Sep-17 07:59N 40°13' E 026°04'3 2.6
2017-Sep-17 06:51N 40°14' E 026°01'411.3
2017-Sep-17 06:28N 40°13' E 026°06'8 8.9
2017-Sep-17 05:38N 40°12' E 026°16'0 0.0
2017-Sep-17 05:30N 40°12' E 026°16'12 9.7
2017-Sep-17 04:15N 40°13' E 026°00'2 1.8
2017-Sep-17 03:18N 40°14' E 025°58'14 2.6
2017-Sep-16 21:57N 40°12' E 026°16'0 0.0
2017-Sep-16 21:27N 40°12' E 026°16'4 7.3
2017-Sep-16 20:52N 40°12' E 026°11'512.0
2017-Sep-16 20:28N 40°13' E 026°04'3 1.9
2017-Sep-16 19:03N 40°14' E 026°01'110.9
2017-Sep-16 18:59N 40°14' E 026°02'5 2.3
2017-Sep-16 16:55N 40°12' E 026°08'7 6.2
2017-Sep-16 15:46N 40°14' E 025°58'310.4
2017-Sep-16 15:30N 40°14' E 026°02'610.9
2017-Sep-16 14:59N 40°13' E 026°09'5 6.9
2017-Sep-16 14:14N 40°12' E 026°16'0 0.1
2017-Sep-16 13:59N 40°12' E 026°16'711.6
2017-Sep-16 13:25N 40°13' E 026°07'5 3.4
2017-Sep-16 12:01N 40°14' E 026°01'010.9
2017-Sep-16 11:58N 40°13' E 026°02'2 0.7
2017-Sep-16 09:44N 40°13' E 026°04'1 0.3
2017-Sep-16 06:19N 40°12' E 026°05'8 0.8
2017-Sep-15 19:49N 40°12' E 026°16'0 0.0
2017-Sep-15 19:28N 40°12' E 026°16'11 4.9
2017-Sep-15 17:09N 40°13' E 026°01'210.6
2017-Sep-15 16:58N 40°13' E 026°04'10 8.5
2017-Sep-15 15:51N 40°12' E 026°16'0 0.0
2017-Sep-15 15:30N 40°12' E 026°16'7 1.4
2017-Sep-15 10:41N 40°13' E 026°08'3 0.7
2017-Sep-15 06:26N 40°13' E 026°04'3 0.3
2017-Sep-14 16:48N 40°12' E 026°08'412.5
2017-Sep-14 16:29N 40°13' E 026°03'3 2.0
2017-Sep-14 15:06N 40°14' E 025°60'4 0.4
2017-Sep-14 04:32N 40°13' E 026°05'012.4
2017-Sep-14 04:30N 40°13' E 026°04'3 0.4
2017-Sep-13 19:04N 40°14' E 026°00'111.6
2017-Sep-13 18:58N 40°14' E 026°02'4 1.8
2017-Sep-13 16:39N 40°13' E 026°07'212.7
2017-Sep-13 16:28N 40°13' E 026°04'3 0.8
2017-Sep-13 12:42N 40°13' E 026°08'312.7
2017-Sep-13 12:30N 40°13' E 026°04'2 1.5
2017-Sep-13 11:01N 40°14' E 026°02'011.1
2017-Sep-13 11:00N 40°14' E 026°02'1111.4
2017-Sep-13 10:03N 40°12' E 026°16'0 1.7
2017-Sep-13 10:00N 40°12' E 026°16'0 0.0
2017-Sep-13 09:18N 40°12' E 026°16'1111.5
2017-Sep-13 08:22N 40°14' E 026°02'4 1.1
2017-Sep-13 04:41N 40°12' E 026°08'212.7
2017-Sep-13 04:30N 40°13' E 026°05'3 0.3
2017-Sep-12 19:01N 40°14' E 026°01'011.4
2017-Sep-12 19:00N 40°14' E 026°02'5 1.9
2017-Sep-12 16:40N 40°12' E 026°07'212.8
2017-Sep-12 16:30N 40°13' E 026°04'2 0.2
2017-Sep-12 06:51N 40°12' E 026°06'5 0.5
2017-Sep-11 19:09N 40°14' E 025°60'210.7
2017-Sep-11 19:00N 40°14' E 026°02'11 6.8
2017-Sep-11 17:21N 40°12' E 026°16'6 9.6
2017-Sep-11 16:41N 40°13' E 026°08'313.2
2017-Sep-11 16:26N 40°13' E 026°03'1 0.6
2017-Sep-11 14:57N 40°14' E 026°04'510.9
2017-Sep-11 14:29N 40°14' E 026°10'5 9.5
2017-Sep-11 14:00N 40°12' E 026°16'0 0.0
2017-Sep-11 13:25N 40°12' E 026°16'4 1.3
2017-Sep-11 10:29N 40°13' E 026°11'4 7.9
2017-Sep-11 10:00N 40°12' E 026°16'  

Dump ship's entire track history